aviador You're here:

LFRD Decoded Metar

DINARD in FRANCE
Report Time2017-12-11 22:30:00
UTC Time2017-12-11 22:56:59
Flight Rules vfr VFR
Wind340° at 08 kt
W.Decomp.*RWY 35: 7.9 kt HW 1.1 kt LCW
RWY 30: 5.9 kt HW 5.4 kt RCW
W.Rank340° ranks 10
Current wind is below 340° avg. (9.0)
Visibility9999 m
Phenomena:N/A
Clouds:Few 045 Hf
Scattered 060 Hf
Expected CloudBase > 2,000 ft AGL from Temp-Dew spread
CeilingNone
Temp05°C (ISA -10)
Dew Point00°C (70% RH)
AAT0.1°C
QNH1001 hPa
Density Alt-472 ft
Elevation194 ft
Report Wrong Elevation
Raw Report
LFRD 112230Z AUTO 34008KT 9999 FEW045 SCT060 05/M00 Q1001
NOSIG=

Extra information for LFRD:More info

Metar Taf Metar & Taf Last 4 Metars F.Rules Stats Wind Profile Meteogram Temp Stats Airport Information Weather charts Add Link Nearby VenuesMetar ALERT Operation Metar Decoded Social comments